aviador You're here:

KOAJ Decoded Metar

JACKSONVILLE in NC, USA
Report Time2018-07-22 11:56:00
UTC Time2018-07-22 12:41:21
Flight Rules vfr VFR
Wind170° at 04 kt
W.Decomp.*RWY 23: 2.5 kt HW 3.2 kt LCW
W.Rank170° ranks 12
Current wind is below 170° avg. (7.5)
Visibility9999 m
Phenomena:N/A
Clouds:Few 100 Hf
Expected CloudBase > 800 ft AGL from Temp-Dew spread
CeilingNone
Temp26°C (ISA +11)
Dew Point24°C (89% RH)
QNH1009 hPa
Density Alt1,916 ft
Elevation95 ft
Report Wrong Elevation
Raw Report
METAR KOAJ 221156Z AUTO 17004KT 10SM FEW100 26/24 A2979 RMK AO2 SLP092
T02560239 10256 20233 51010=

Extra information for KOAJ:More info

Metar Taf Metar & Taf Last 4 Metars F.Rules Stats Wind Profile Meteogram Temp Stats Airport Information Weather charts Add Link Nearby VenuesMetar ALERT Operation Metar Decoded Social comments

AIRNAV info for KOAJ